Time;durP1;ratioP1;P1;durP2;ratioP2;P2;SDS_P1;SDS_P2;PMS_P1;PMS_P2;Temp;Humidity;BMP_temperature;BMP_pressure;BME280_temperature;BME280_humidity;BME280_pressure;Samples;Min_cycle;Max_cycle;Signal;HPM_P1;HPM_P2
2023/03/30 00:00:17;;;;;;;3.10;2.37;;;20.20;66.10;;;;;;4957663;29;20453;-83
2023/03/30 00:02:47;;;;;;;3.70;2.50;;;20.20;66.10;;;;;;4957134;28;20965;-82
2023/03/30 00:05:15;;;;;;;2.33;2.07;;;20.20;66.10;;;;;;4957745;29;20859;-83
2023/03/30 00:07:42;;;;;;;2.50;2.20;;;20.20;66.10;;;;;;4957713;29;20476;-83
2023/03/30 00:10:11;;;;;;;2.43;2.10;;;20.30;66.20;;;;;;4958178;29;20446;-90
2023/03/30 00:12:39;;;;;;;2.70;2.40;;;20.20;66.20;;;;;;4957965;29;20449;-89
2023/03/30 00:15:08;;;;;;;4.20;2.10;;;20.20;66.10;;;;;;4957541;29;20537;-82
2023/03/30 00:17:35;;;;;;;2.60;2.40;;;20.20;66.10;;;;;;4958230;29;20487;-83
2023/03/30 00:20:07;;;;;;;2.53;2.33;;;20.30;66.20;;;;;;4957379;29;20452;-83
2023/03/30 00:22:35;;;;;;;3.60;1.97;;;20.20;66.10;;;;;;4957627;29;20530;-83
2023/03/30 00:25:01;;;;;;;3.17;1.90;;;20.20;66.10;;;;;;4957215;29;20465;-83
2023/03/30 00:27:28;;;;;;;2.70;2.50;;;20.20;66.10;;;;;;4957534;29;20441;-82
2023/03/30 00:29:55;;;;;;;2.87;2.23;;;20.20;66.10;;;;;;4957423;29;20452;-83
2023/03/30 00:32:22;;;;;;;2.87;2.47;;;20.20;66.10;;;;;;4957340;29;20441;-82
2023/03/30 00:34:48;;;;;;;2.67;2.07;;;20.20;66.10;;;;;;4957347;29;20437;-82
2023/03/30 00:37:17;;;;;;;2.80;2.33;;;20.20;66.10;;;;;;4957168;29;20500;-83
2023/03/30 00:39:44;;;;;;;2.70;2.33;;;20.20;66.10;;;;;;4956971;29;20453;-83
2023/03/30 00:42:15;;;;;;;2.03;1.83;;;20.20;66.10;;;;;;4957259;29;20972;-82
2023/03/30 00:45:21;;;;;;;2.90;2.20;;;20.20;66.10;;;;;;4957362;29;20803;-90
2023/03/30 00:47:53;;;;;;;2.23;2.03;;;20.20;66.10;;;;;;4879767;29;20445;-83
2023/03/30 00:50:23;;;;;;;3.03;2.00;;;20.20;66.10;;;;;;4945753;28;20454;-82
2023/03/30 00:52:53;;;;;;;3.40;2.33;;;20.20;66.10;;;;;;4957406;29;20448;-83
2023/03/30 00:55:23;;;;;;;3.17;2.63;;;20.20;66.10;;;;;;4957221;29;20925;-82
2023/03/30 00:57:51;;;;;;;2.47;2.00;;;20.20;66.10;;;;;;4957017;29;20485;-82
2023/03/30 01:00:19;;;;;;;2.30;1.90;;;20.20;66.10;;;;;;4956925;29;20449;-82
2023/03/30 01:02:51;;;;;;;3.70;2.67;;;20.20;66.10;;;;;;4957149;29;20449;-82
2023/03/30 01:05:19;;;;;;;2.53;2.10;;;20.20;66.10;;;;;;4957241;29;20869;-82
2023/03/30 01:07:48;;;;;;;2.30;1.90;;;20.20;66.10;;;;;;4957438;29;20461;-82
2023/03/30 01:10:17;;;;;;;2.03;1.67;;;20.20;66.00;;;;;;4957896;29;20445;-83
2023/03/30 01:12:44;;;;;;;2.63;1.80;;;20.20;66.00;;;;;;4958249;29;20454;-83
2023/03/30 01:15:11;;;;;;;2.43;1.97;;;20.20;66.00;;;;;;4959379;28;20444;-81
2023/03/30 01:18:11;;;;;;;2.40;2.20;;;20.20;66.10;;;;;;4961224;29;20492;-83
2023/03/30 01:21:16;;;;;;;3.30;1.90;;;20.20;66.00;;;;;;4938439;28;20805;-83
2023/03/30 01:24:19;;;;;;;2.50;2.10;;;20.20;66.10;;;;;;4933338;28;20946;-83
2023/03/30 01:26:56;;;;;;;3.67;2.30;;;20.20;66.10;;;;;;4955900;29;20516;-83
2023/03/30 01:29:41;;;;;;;2.53;2.30;;;20.20;66.10;;;;;;4955896;29;20524;-89
2023/03/30 01:32:40;;;;;;;3.83;2.47;;;20.20;66.10;;;;;;4956101;29;20951;-82
2023/03/30 01:35:33;;;;;;;2.50;1.97;;;20.10;65.90;;;;;;4910626;29;20443;-90
2023/03/30 01:38:31;;;;;;;2.13;1.77;;;20.20;66.10;;;;;;4955691;29;20492;-82
2023/03/30 01:41:09;;;;;;;1.93;1.70;;;20.20;66.10;;;;;;4955801;29;20450;-82
2023/03/30 01:43:43;;;;;;;2.20;1.90;;;20.20;66.10;;;;;;4955801;29;20453;-83
2023/03/30 01:46:19;;;;;;;2.03;1.80;;;20.10;65.90;;;;;;4955712;29;20438;-83
2023/03/30 01:48:53;;;;;;;1.70;1.60;;;20.20;66.10;;;;;;4956021;29;20442;-82
2023/03/30 01:51:27;;;;;;;2.13;1.80;;;20.20;66.10;;;;;;4955753;29;20448;-82
2023/03/30 01:53:59;;;;;;;2.90;2.13;;;20.10;65.90;;;;;;4955689;29;20460;-83
2023/03/30 01:56:31;;;;;;;2.33;2.13;;;20.20;66.00;;;;;;4967890;29;20418;-83
2023/03/30 01:59:02;;;;;;;2.23;1.80;;;20.20;66.00;;;;;;4980154;28;20473;-83
2023/03/30 02:01:32;;;;;;;2.10;1.83;;;20.10;65.90;;;;;;4979957;28;20505;-83
2023/03/30 02:04:00;;;;;;;3.10;2.07;;;20.20;66.00;;;;;;4968397;28;20801;-83
2023/03/30 02:06:30;;;;;;;2.23;2.03;;;20.10;65.80;;;;;;4958658;29;20461;-83
2023/03/30 02:08:59;;;;;;;1.80;1.70;;;20.10;65.80;;;;;;4957310;29;20484;-82
2023/03/30 02:11:30;;;;;;;2.57;1.60;;;20.20;66.00;;;;;;4956333;29;20445;-82
2023/03/30 02:13:59;;;;;;;2.90;2.20;;;20.10;65.80;;;;;;4955948;29;20456;-83
2023/03/30 02:16:33;;;;;;;1.80;1.37;;;20.10;65.80;;;;;;4955555;29;20446;-82
2023/03/30 02:19:01;;;;;;;2.07;1.87;;;20.10;65.80;;;;;;4955666;29;20485;-82
2023/03/30 02:21:28;;;;;;;2.33;2.03;;;20.10;65.80;;;;;;4955764;29;20447;-82
2023/03/30 02:23:57;;;;;;;1.80;1.40;;;20.10;65.80;;;;;;4955761;29;20437;-83
2023/03/30 02:26:26;;;;;;;2.53;2.10;;;20.10;65.80;;;;;;4955130;29;20565;-82
2023/03/30 02:28:54;;;;;;;2.60;1.87;;;20.10;65.80;;;;;;4955218;29;20449;-82
2023/03/30 02:31:21;;;;;;;4.33;2.60;;;20.30;66.00;;;;;;4955435;29;20456;-82
2023/03/30 02:34:05;;;;;;;3.47;1.97;;;20.20;66.00;;;;;;4955449;29;20442;-82
2023/03/30 02:37:01;;;;;;;1.90;1.70;;;20.20;66.00;;;;;;4955810;29;20528;-83
2023/03/30 02:39:39;;;;;;;2.60;2.40;;;20.10;65.80;;;;;;4947386;28;20496;-82
2023/03/30 02:42:29;;;;;;;2.80;2.03;;;20.10;65.80;;;;;;4955527;29;20449;-82
2023/03/30 02:45:13;;;;;;;2.63;2.00;;;20.10;65.80;;;;;;4955404;29;20458;-82
2023/03/30 02:47:50;;;;;;;2.37;1.87;;;20.10;66.60;;;;;;4955625;29;20449;-82
2023/03/30 02:50:23;;;;;;;2.60;2.10;;;20.10;65.80;;;;;;4955663;29;20516;-83
2023/03/30 02:52:55;;;;;;;1.80;1.40;;;20.10;65.80;;;;;;4955676;29;20791;-83
2023/03/30 02:55:33;;;;;;;1.70;1.60;;;20.20;65.90;;;;;;4955382;29;20547;-83
2023/03/30 02:58:06;;;;;;;1.87;1.53;;;20.10;65.80;;;;;;4955418;29;20481;-82
2023/03/30 03:00:43;;;;;;;2.23;2.00;;;20.10;65.80;;;;;;4955598;29;20450;-88
2023/03/30 03:03:16;;;;;;;2.10;1.70;;;20.20;65.90;;;;;;4956530;29;20450;-83
2023/03/30 03:05:44;;;;;;;2.20;2.00;;;20.10;65.80;;;;;;4955351;29;20438;-83
2023/03/30 03:08:14;;;;;;;2.20;2.00;;;20.10;65.70;;;;;;4955252;29;20501;-83
2023/03/30 03:10:41;;;;;;;2.03;1.67;;;20.10;65.70;;;;;;4955140;29;20497;-83
2023/03/30 03:13:09;;;;;;;2.33;1.53;;;20.10;65.70;;;;;;4955124;29;20437;-82
2023/03/30 03:15:38;;;;;;;2.60;1.70;;;20.10;65.70;;;;;;4955255;29;20892;-82
2023/03/30 03:18:06;;;;;;;2.00;1.70;;;20.20;65.80;;;;;;4955325;29;20579;-90
2023/03/30 03:20:33;;;;;;;2.00;1.70;;;20.10;65.70;;;;;;4955363;29;21021;-89
2023/03/30 03:23:00;;;;;;;1.63;1.53;;;20.10;65.70;;;;;;4955223;29;20447;-83
2023/03/30 03:25:26;;;;;;;1.70;1.60;;;20.10;65.70;;;;;;4954505;29;20481;-84
2023/03/30 03:27:53;;;;;;;1.60;1.50;;;20.10;65.70;;;;;;4955452;29;20456;-83
2023/03/30 03:30:20;;;;;;;1.90;1.67;;;20.20;65.80;;;;;;4955301;29;20444;-83
2023/03/30 03:32:49;;;;;;;2.57;1.80;;;20.10;65.70;;;;;;4955084;29;20445;-82
2023/03/30 03:35:16;;;;;;;1.63;1.40;;;20.10;65.70;;;;;;4955457;29;20525;-82
2023/03/30 03:37:43;;;;;;;2.47;1.70;;;20.10;65.60;;;;;;4956051;28;20544;-83
2023/03/30 03:40:11;;;;;;;2.13;1.93;;;20.20;65.70;;;;;;4958689;29;20473;-82
2023/03/30 03:42:38;;;;;;;5.57;1.80;;;20.10;65.60;;;;;;4959350;29;20933;-82
2023/03/30 03:45:06;;;;;;;1.50;1.10;;;20.10;65.60;;;;;;4959146;29;20450;-82
2023/03/30 03:47:33;;;;;;;2.10;1.70;;;20.20;65.70;;;;;;4959992;29;20446;-82
2023/03/30 03:50:05;;;;;;;1.93;1.53;;;20.10;65.60;;;;;;4961701;29;20949;-82
2023/03/30 03:52:32;;;;;;;1.93;1.60;;;20.30;65.80;;;;;;4959948;29;20589;-83
2023/03/30 03:54:59;;;;;;;1.63;1.40;;;20.10;65.60;;;;;;4959722;29;20448;-82
2023/03/30 03:57:26;;;;;;;3.00;1.77;;;20.30;65.80;;;;;;4957685;29;20447;-83
2023/03/30 03:59:55;;;;;;;2.37;1.80;;;20.10;65.60;;;;;;4957533;29;20492;-82
2023/03/30 04:02:22;;;;;;;1.77;1.47;;;20.10;65.60;;;;;;4957826;29;20485;-83
2023/03/30 04:04:49;;;;;;;2.00;1.70;;;20.10;65.60;;;;;;4957379;29;20434;-82
2023/03/30 04:07:18;;;;;;;1.77;1.47;;;20.10;65.60;;;;;;4957474;29;20543;-83
2023/03/30 04:09:44;;;;;;;1.97;1.50;;;20.10;65.60;;;;;;4957250;29;20450;-83
2023/03/30 04:12:11;;;;;;;1.80;1.40;;;20.10;65.60;;;;;;4957392;29;20442;-83
2023/03/30 04:14:38;;;;;;;2.00;1.57;;;20.30;65.80;;;;;;4957371;29;20449;-82
2023/03/30 04:17:05;;;;;;;2.03;1.57;;;20.10;65.60;;;;;;4957499;29;20804;-82
2023/03/30 04:19:32;;;;;;;1.63;1.50;;;20.10;65.60;;;;;;4957150;29;20581;-83
2023/03/30 04:21:58;;;;;;;2.03;1.40;;;20.10;65.60;;;;;;4957496;29;20450;-83
2023/03/30 04:24:28;;;;;;;1.90;1.60;;;20.10;65.60;;;;;;4957418;29;20480;-83
2023/03/30 04:26:56;;;;;;;1.80;1.60;;;20.10;65.60;;;;;;4957134;29;20488;-83
2023/03/30 04:29:23;;;;;;;2.20;1.57;;;20.30;65.80;;;;;;4957397;29;20468;-82
2023/03/30 04:31:50;;;;;;;1.50;1.20;;;20.10;65.60;;;;;;4957168;29;20454;-90
2023/03/30 04:34:20;;;;;;;2.00;1.80;;;20.10;65.60;;;;;;4957192;29;20492;-82
2023/03/30 04:36:47;;;;;;;1.73;1.63;;;20.10;65.60;;;;;;4957446;29;20449;-89
2023/03/30 04:39:17;;;;;;;2.13;1.93;;;20.10;65.50;;;;;;4957169;29;20493;-82
2023/03/30 04:41:45;;;;;;;1.60;1.40;;;20.10;65.60;;;;;;4957020;29;20453;-82
2023/03/30 04:44:12;;;;;;;1.57;1.47;;;20.10;65.60;;;;;;4956697;29;20450;-82
2023/03/30 04:46:39;;;;;;;1.67;1.30;;;20.10;65.60;;;;;;4956853;29;20809;-83
2023/03/30 04:49:06;;;;;;;1.97;1.50;;;20.10;65.60;;;;;;4956686;28;20446;-83
2023/03/30 04:51:33;;;;;;;1.40;1.23;;;20.10;65.60;;;;;;4956879;29;20438;-83
2023/03/30 04:54:01;;;;;;;1.80;1.37;;;20.10;65.60;;;;;;4957135;29;20509;-90
2023/03/30 04:56:30;;;;;;;1.80;1.33;;;20.10;65.60;;;;;;4956804;29;20845;-83
2023/03/30 04:58:58;;;;;;;1.43;1.30;;;20.10;65.50;;;;;;4956583;29;20494;-82
2023/03/30 05:01:25;;;;;;;1.50;1.37;;;20.10;65.60;;;;;;4956867;29;20449;-83
2023/03/30 05:03:52;;;;;;;2.13;1.30;;;20.10;65.60;;;;;;4956627;29;20942;-81
2023/03/30 05:06:20;;;;;;;1.90;1.73;;;20.10;65.50;;;;;;4956494;29;20446;-82
2023/03/30 05:08:47;;;;;;;1.60;1.50;;;20.10;65.50;;;;;;4956400;29;20892;-90
2023/03/30 05:11:13;;;;;;;1.70;1.30;;;20.10;65.50;;;;;;4956422;29;20444;-82
2023/03/30 05:13:40;;;;;;;2.10;1.90;;;20.10;65.60;;;;;;4956569;29;20442;-84
2023/03/30 05:16:09;;;;;;;1.97;1.30;;;20.20;65.60;;;;;;4956528;29;20500;-83
2023/03/30 05:18:37;;;;;;;1.70;1.30;;;20.10;65.60;;;;;;4956392;29;20485;-90
2023/03/30 05:21:04;;;;;;;2.50;1.70;;;20.10;65.50;;;;;;4956452;29;20445;-83
2023/03/30 05:23:31;;;;;;;1.60;1.23;;;20.10;65.60;;;;;;4956496;29;20442;-83
2023/03/30 05:25:58;;;;;;;1.90;1.27;;;20.10;65.50;;;;;;4956307;29;20558;-82
2023/03/30 05:28:25;;;;;;;1.53;1.23;;;20.10;65.60;;;;;;4956646;29;20447;-82
2023/03/30 05:30:53;;;;;;;1.53;1.40;;;20.10;65.50;;;;;;4957578;29;20793;-82
2023/03/30 05:33:22;;;;;;;2.00;1.30;;;20.10;65.50;;;;;;4956354;29;20446;-79
2023/03/30 05:35:49;;;;;;;1.70;1.20;;;20.10;65.60;;;;;;4956246;29;20799;-83
2023/03/30 05:38:16;;;;;;;1.50;1.20;;;20.30;65.70;;;;;;4956068;29;20532;-89
2023/03/30 05:40:43;;;;;;;2.30;1.20;;;20.10;65.60;;;;;;4956159;29;20449;-84
2023/03/30 05:43:10;;;;;;;1.63;1.47;;;20.10;65.60;;;;;;4956020;29;20445;-83
2023/03/30 05:45:37;;;;;;;1.70;1.50;;;20.10;65.50;;;;;;4955633;29;20442;-82
2023/03/30 05:48:06;;;;;;;1.87;1.60;;;20.10;65.40;;;;;;4956252;29;20538;-89
2023/03/30 05:50:34;;;;;;;2.03;1.40;;;20.10;65.40;;;;;;4956632;29;20896;-90
2023/03/30 05:53:01;;;;;;;1.73;1.10;;;20.10;65.40;;;;;;4956246;29;20446;-90
2023/03/30 05:55:28;;;;;;;1.40;1.10;;;20.10;65.50;;;;;;4956122;29;20454;-90
2023/03/30 05:57:55;;;;;;;4.13;1.40;;;20.10;65.50;;;;;;4956167;29;20939;-90
2023/03/30 06:00:22;;;;;;;1.90;1.30;;;20.10;65.60;;;;;;4955633;28;20532;-83
2023/03/30 06:02:50;;;;;;;1.97;1.57;;;20.10;65.70;;;;;;4955995;29;20541;-83
2023/03/30 06:05:17;;;;;;;1.30;1.20;;;20.10;65.70;;;;;;4957924;29;21091;-82
2023/03/30 06:07:46;;;;;;;2.57;1.40;;;20.10;65.70;;;;;;4956144;29;20470;-88
2023/03/30 06:10:13;;;;;;;1.60;1.40;;;20.10;65.60;;;;;;4955930;29;20449;-82
2023/03/30 06:12:39;;;;;;;1.70;1.27;;;20.10;65.60;;;;;;4956165;29;20479;-83
2023/03/30 06:15:07;;;;;;;1.97;1.77;;;20.10;65.70;;;;;;4957103;29;20520;-82
2023/03/30 06:17:37;;;;;;;3.30;1.60;;;20.10;65.70;;;;;;4956485;29;20854;-81
2023/03/30 06:20:10;;;;;;;1.73;1.47;;;20.10;65.70;;;;;;4956493;29;20900;-83
2023/03/30 06:22:36;;;;;;;1.37;1.27;;;20.10;65.60;;;;;;4957260;29;20446;-82
2023/03/30 06:25:06;;;;;;;1.50;1.20;;;20.10;65.60;;;;;;4957397;29;20446;-84
2023/03/30 06:27:32;;;;;;;2.47;1.63;;;20.10;65.60;;;;;;4961781;29;20446;-83
2023/03/30 06:30:00;;;;;;;1.60;1.20;;;20.10;65.30;;;;;;4960313;29;20429;-84
2023/03/30 06:32:27;;;;;;;1.50;1.40;;;20.10;65.40;;;;;;4956788;29;20438;-85
2023/03/30 06:34:54;;;;;;;2.30;1.30;;;20.10;65.60;;;;;;4955428;29;20537;-84
2023/03/30 06:37:30;;;;;;;1.70;1.47;;;20.20;65.70;;;;;;4955966;29;20838;-89
2023/03/30 06:39:57;;;;;;;1.60;1.20;;;20.20;65.60;;;;;;4995536;28;20481;-90
2023/03/30 06:42:27;;;;;;;2.30;1.33;;;20.20;65.50;;;;;;4978717;28;20535;-89
2023/03/30 06:51:36;;;;;;;3.00;1.57;;;20.10;65.60;;;;;;5008615;23;20550;-88
2023/03/30 06:54:03;;;;;;;2.17;1.27;;;20.10;65.70;;;;;;4998308;28;20448;-93
2023/03/30 06:56:30;;;;;;;1.77;1.30;;;20.20;65.80;;;;;;4997080;28;20448;-90
2023/03/30 06:58:59;;;;;;;2.13;1.37;;;20.20;65.90;;;;;;4995801;28;20487;-91
2023/03/30 07:01:25;;;;;;;2.53;1.40;;;20.20;65.80;;;;;;4995058;28;20452;-94
2023/03/30 07:03:53;;;;;;;1.43;1.13;;;20.20;65.70;;;;;;4994135;28;20462;-87
2023/03/30 07:06:19;;;;;;;2.27;1.10;;;20.30;65.80;;;;;;4994081;28;20444;-88
2023/03/30 07:08:46;;;;;;;4.60;1.50;;;20.20;65.60;;;;;;4994040;28;20472;-87
2023/03/30 07:11:13;;;;;;;1.50;1.40;;;20.20;65.70;;;;;;4994092;28;20440;-87
2023/03/30 07:13:40;;;;;;;3.00;1.13;;;20.20;65.70;;;;;;4996375;28;20440;-91
2023/03/30 07:16:09;;;;;;;1.40;1.30;;;20.20;66.10;;;;;;4997796;28;20491;-87
2023/03/30 07:18:36;;;;;;;1.70;1.00;;;20.20;65.90;;;;;;4997604;28;20813;-87
2023/03/30 07:21:03;;;;;;;4.83;1.43;;;20.20;66.00;;;;;;4997599;28;20494;-88
2023/03/30 07:23:30;;;;;;;1.97;1.23;;;20.20;66.10;;;;;;4997523;28;20452;-86
2023/03/30 07:25:56;;;;;;;1.50;1.27;;;20.20;66.10;;;;;;4998318;28;20448;-96
2023/03/30 07:28:24;;;;;;;2.10;1.50;;;20.20;66.00;;;;;;4997228;28;20447;-86
2023/03/30 07:30:51;;;;;;;2.40;1.57;;;20.20;65.80;;;;;;4997207;28;20571;-90
2023/03/30 07:33:20;;;;;;;3.70;1.77;;;20.30;65.90;;;;;;4997334;28;20506;-86
2023/03/30 07:35:48;;;;;;;1.43;1.33;;;20.20;65.80;;;;;;4997275;28;20455;-86
2023/03/30 07:38:15;;;;;;;1.80;1.33;;;20.20;65.80;;;;;;4997077;28;20463;-86
2023/03/30 07:40:42;;;;;;;2.17;1.83;;;20.20;65.60;;;;;;4997160;28;20506;-87
2023/03/30 07:43:09;;;;;;;1.40;1.10;;;20.20;65.70;;;;;;4996695;28;20443;-87
2023/03/30 07:45:36;;;;;;;1.80;1.70;;;20.20;65.60;;;;;;4997066;28;20459;-86
2023/03/30 07:48:02;;;;;;;1.73;1.47;;;20.20;65.50;;;;;;4996461;28;20448;-86
2023/03/30 07:50:31;;;;;;;1.60;1.27;;;20.20;65.50;;;;;;4997696;28;20962;-87
2023/03/30 07:52:58;;;;;;;1.30;1.00;;;20.20;65.90;;;;;;5001871;28;20514;-86
2023/03/30 07:55:27;;;;;;;2.37;1.40;;;20.20;66.90;;;;;;4998656;28;20444;-94
2023/03/30 07:57:54;;;;;;;1.50;1.33;;;20.20;66.00;;;;;;5006708;23;20642;-89
2023/03/30 08:00:25;;;;;;;1.20;1.00;;;20.20;65.90;;;;;;5001050;28;20476;-94
2023/03/30 08:02:52;;;;;;;1.70;1.13;;;20.20;66.10;;;;;;4999219;28;20444;-87
2023/03/30 08:05:19;;;;;;;2.13;1.57;;;20.20;66.20;;;;;;4997896;28;20531;-89
2023/03/30 08:07:48;;;;;;;2.83;1.30;;;20.40;66.40;;;;;;4997601;28;20531;-86
2023/03/30 08:10:15;;;;;;;4.20;1.33;;;20.20;66.20;;;;;;4997317;28;20448;-90
2023/03/30 08:12:42;;;;;;;1.60;1.10;;;20.20;66.20;;;;;;4997246;28;20444;-90
2023/03/30 08:15:15;;;;;;;1.30;1.00;;;20.20;66.20;;;;;;4997760;28;20498;-92
2023/03/30 08:17:42;;;;;;;1.60;1.50;;;20.40;66.40;;;;;;4998066;28;20441;-91
2023/03/30 08:20:10;;;;;;;1.50;1.07;;;20.30;66.40;;;;;;4981620;28;21092;-92
2023/03/30 08:22:37;;;;;;;1.67;1.10;;;20.20;66.30;;;;;;5001766;28;20468;-90
2023/03/30 08:25:06;;;;;;;3.60;1.23;;;20.20;66.00;;;;;;4997819;28;20463;-88
2023/03/30 08:27:35;;;;;;;4.17;1.40;;;20.20;66.00;;;;;;4998587;28;20570;-89
2023/03/30 08:30:02;;;;;;;1.97;1.37;;;20.30;66.20;;;;;;4997555;28;20444;-89
2023/03/30 08:32:28;;;;;;;2.73;1.70;;;20.30;66.50;;;;;;4998731;28;20884;-92
2023/03/30 08:34:55;;;;;;;3.03;1.13;;;20.30;66.70;;;;;;4996918;28;20436;-88
2023/03/30 08:37:23;;;;;;;6.37;1.60;;;20.30;67.00;;;;;;4983268;28;20571;-90
2023/03/30 08:39:51;;;;;;;1.77;1.40;;;20.30;67.50;;;;;;4983091;28;20864;-88
2023/03/30 08:42:36;;;;;;;2.40;1.53;;;20.30;67.70;;;;;;4977495;28;20441;-89
2023/03/30 08:45:04;;;;;;;4.33;1.50;;;20.30;68.00;;;;;;4977191;28;20441;-87
2023/03/30 08:47:34;;;;;;;1.90;1.50;;;20.30;68.00;;;;;;4977172;28;20448;-86
2023/03/30 08:50:07;;;;;;;3.30;1.30;;;20.30;67.90;;;;;;4980736;28;20960;-86
2023/03/30 08:52:34;;;;;;;5.00;1.20;;;20.30;68.10;;;;;;4995970;28;20444;-87
2023/03/30 08:55:03;;;;;;;4.13;1.50;;;20.30;68.30;;;;;;4996009;28;20444;-87
2023/03/30 08:57:41;;;;;;;4.27;1.57;;;20.30;68.40;;;;;;4995545;28;20498;-95
2023/03/30 09:00:20;;;;;;;4.93;1.30;;;20.30;67.80;;;;;;4996236;28;20484;-91
2023/03/30 09:02:50;;;;;;;3.10;1.50;;;20.30;67.90;;;;;;4997708;28;20462;-90
2023/03/30 09:05:22;;;;;;;5.73;1.70;;;20.30;67.80;;;;;;4996970;28;20456;-91
2023/03/30 09:07:59;;;;;;;3.63;1.30;;;20.30;67.80;;;;;;4996605;28;20475;-88
2023/03/30 09:10:28;;;;;;;3.47;1.60;;;20.30;68.00;;;;;;4996174;28;20436;-87
2023/03/30 09:12:59;;;;;;;2.33;1.40;;;20.40;68.00;;;;;;4997716;28;20450;-92
2023/03/30 09:15:28;;;;;;;3.63;1.90;;;20.40;68.30;;;;;;5015574;28;20471;-90
2023/03/30 09:17:59;;;;;;;2.73;1.50;;;20.40;68.50;;;;;;5016142;28;20503;-90
2023/03/30 09:20:28;;;;;;;3.33;1.30;;;20.40;68.30;;;;;;4995043;28;21011;-90
2023/03/30 09:22:58;;;;;;;5.23;1.70;;;20.40;68.30;;;;;;4995783;28;20459;-90
2023/03/30 09:25:29;;;;;;;6.27;1.53;;;20.40;68.00;;;;;;4997585;28;20433;-90
2023/03/30 09:28:09;;;;;;;2.17;1.00;;;20.50;68.00;;;;;;4997689;28;20444;-88
2023/03/30 09:30:41;;;;;;;7.33;1.60;;;20.50;68.00;;;;;;4995978;28;20988;-91
2023/03/30 09:33:19;;;;;;;2.80;1.20;;;20.50;67.90;;;;;;4996407;28;20904;-88
2023/03/30 09:35:59;;;;;;;4.00;1.73;;;20.50;67.90;;;;;;4994147;28;20432;-88
2023/03/30 09:38:25;;;;;;;2.90;1.43;;;20.40;67.80;;;;;;4997609;28;20470;-92
2023/03/30 09:41:06;;;;;;;1.67;1.33;;;20.40;67.70;;;;;;4998335;28;20516;-88
2023/03/30 09:43:39;;;;;;;6.40;1.47;;;20.40;67.60;;;;;;4995281;28;20920;-90
2023/03/30 09:46:08;;;;;;;1.97;1.50;;;20.40;67.70;;;;;;4995579;28;20506;-88
2023/03/30 09:48:39;;;;;;;2.70;1.50;;;20.50;67.90;;;;;;4996355;28;20860;-90
2023/03/30 09:51:22;;;;;;;3.23;1.23;;;20.50;67.50;;;;;;4998013;28;20501;-91
2023/03/30 09:53:52;;;;;;;1.63;1.20;;;20.40;67.40;;;;;;4982681;28;20479;-91
2023/03/30 09:56:27;;;;;;;4.23;2.17;;;20.40;67.50;;;;;;4995351;28;20805;-89
2023/03/30 09:58:58;;;;;;;4.33;1.40;;;20.50;67.70;;;;;;5000201;28;20533;-91
2023/03/30 10:01:36;;;;;;;3.00;1.47;;;20.50;67.70;;;;;;4997097;28;20479;-93
2023/03/30 10:04:11;;;;;;;2.37;1.20;;;20.40;67.40;;;;;;4994921;28;20469;-92
2023/03/30 10:06:45;;;;;;;3.30;1.37;;;20.40;67.50;;;;;;4996701;28;20444;-88
2023/03/30 10:09:12;;;;;;;2.43;1.17;;;20.50;67.80;;;;;;4975920;28;20491;-88
2023/03/30 10:11:43;;;;;;;3.47;1.10;;;20.40;67.70;;;;;;4991983;28;20451;-96
2023/03/30 10:14:31;;;;;;;2.33;1.30;;;20.50;67.60;;;;;;4978384;28;20485;-89
2023/03/30 10:17:00;;;;;;;2.23;1.73;;;20.50;67.70;;;;;;4998164;28;20448;-91
2023/03/30 10:19:29;;;;;;;3.63;1.43;;;20.50;67.80;;;;;;4999644;28;20531;-92
2023/03/30 10:21:58;;;;;;;4.20;1.33;;;20.50;68.90;;;;;;5002624;28;20595;-93
2023/03/30 10:24:27;;;;;;;3.27;1.30;;;20.40;67.90;;;;;;5007775;23;20606;-88
2023/03/30 10:26:56;;;;;;;4.87;1.40;;;20.40;68.00;;;;;;5001484;28;20495;-87
2023/03/30 10:29:29;;;;;;;6.10;1.50;;;20.40;68.00;;;;;;4998273;28;20457;-91
2023/03/30 10:32:01;;;;;;;3.17;1.40;;;20.40;68.10;;;;;;4988570;28;20947;-89
2023/03/30 10:34:40;;;;;;;2.07;1.30;;;20.40;68.00;;;;;;4998731;28;20762;-88
2023/03/30 10:37:11;;;;;;;3.43;1.20;;;20.40;67.90;;;;;;4997153;28;20470;-89
2023/03/30 10:39:40;;;;;;;1.50;1.17;;;20.40;68.90;;;;;;4998981;28;20444;-90
2023/03/30 10:42:19;;;;;;;1.80;1.13;;;20.40;67.80;;;;;;4969121;28;20493;-92
2023/03/30 10:44:53;;;;;;;1.90;1.20;;;20.40;67.80;;;;;;4958914;29;20453;-86
2023/03/30 10:47:43;;;;;;;3.50;1.90;;;20.40;67.60;;;;;;4962745;28;20447;-89
2023/03/30 10:50:22;;;;;;;4.53;1.40;;;20.40;67.70;;;;;;4960774;29;20544;-86
2023/03/30 10:52:58;;;;;;;1.93;1.10;;;20.40;67.70;;;;;;4962598;29;20414;-88
2023/03/30 10:55:33;;;;;;;2.10;1.20;;;20.50;67.90;;;;;;4962075;29;20441;-88
2023/03/30 10:58:07;;;;;;;1.50;1.20;;;20.40;67.90;;;;;;4963605;29;20448;-87
2023/03/30 11:01:00;;;;;;;2.70;1.40;;;20.60;68.30;;;;;;4960895;29;20483;-89
2023/03/30 11:03:31;;;;;;;3.33;1.53;;;20.40;67.90;;;;;;4963744;29;20453;-89
2023/03/30 11:06:05;;;;;;;2.50;1.47;;;20.40;67.80;;;;;;4964997;29;20446;-89
2023/03/30 11:08:36;;;;;;;4.03;1.70;;;20.50;68.00;;;;;;4962135;28;20470;-90
2023/03/30 11:11:05;;;;;;;2.50;1.47;;;20.50;68.10;;;;;;4965616;29;20430;-88
2023/03/30 11:13:36;;;;;;;2.77;1.10;;;20.50;68.40;;;;;;4963216;29;20926;-89
2023/03/30 11:16:10;;;;;;;1.50;1.20;;;20.60;68.40;;;;;;4964373;28;20541;-89
2023/03/30 11:18:43;;;;;;;1.97;1.70;;;20.60;68.50;;;;;;4962993;29;20447;-89
2023/03/30 11:21:16;;;;;;;1.93;1.40;;;20.60;68.50;;;;;;4961604;29;20519;-88
2023/03/30 11:23:50;;;;;;;2.27;1.43;;;20.80;68.60;;;;;;4962222;29;20528;-86
2023/03/30 11:26:22;;;;;;;2.10;1.20;;;20.70;68.50;;;;;;4963593;29;20433;-92
2023/03/30 11:29:05;;;;;;;1.83;1.17;;;20.70;68.50;;;;;;4962818;29;20450;-89
2023/03/30 11:31:43;;;;;;;5.13;1.70;;;20.70;68.50;;;;;;4961266;29;20504;-89
2023/03/30 11:34:20;;;;;;;4.23;1.40;;;20.80;68.60;;;;;;4964217;29;20446;-89
2023/03/30 11:36:56;;;;;;;2.20;1.33;;;20.80;68.70;;;;;;4961956;28;20985;-86
2023/03/30 11:39:29;;;;;;;2.13;1.30;;;20.80;68.70;;;;;;4962215;29;20536;-89
2023/03/30 11:42:02;;;;;;;3.57;1.30;;;20.80;68.60;;;;;;4961641;29;20534;-90
2023/03/30 11:44:29;;;;;;;3.60;1.63;;;20.80;68.60;;;;;;4963431;29;20434;-87
2023/03/30 11:47:09;;;;;;;1.60;1.00;;;20.80;68.40;;;;;;4962753;29;20451;-91
2023/03/30 11:49:57;;;;;;;1.93;1.20;;;20.80;68.50;;;;;;4959093;29;20541;-91
2023/03/30 11:52:31;;;;;;;1.20;1.00;;;20.80;68.50;;;;;;4958548;29;20438;-90
2023/03/30 11:55:22;;;;;;;2.70;1.30;;;21.00;68.50;;;;;;4957959;29;20450;-93
2023/03/30 11:57:57;;;;;;;1.60;0.97;;;20.80;68.20;;;;;;4957538;28;20862;-88
2023/03/30 20:00:42;;;;;;;3.33;2.83;;;21.50;71.50;;;;;;5037284;23;20541;-95
2023/03/30 20:05:52;;;;;;;2.37;2.17;;;21.60;71.50;;;;;;5032275;23;20448;-93
2023/03/30 20:08:22;;;;;;;2.90;2.70;;;21.60;71.50;;;;;;5014204;28;20864;-93
2023/03/30 20:10:56;;;;;;;3.20;2.10;;;21.60;71.50;;;;;;5039202;23;20447;-92
2023/03/30 20:13:36;;;;;;;2.47;2.27;;;21.60;71.50;;;;;;4994896;28;20500;-93
2023/03/30 20:16:18;;;;;;;2.40;2.20;;;21.60;71.40;;;;;;4994120;28;20437;-93
2023/03/30 20:18:50;;;;;;;3.87;2.50;;;21.60;71.50;;;;;;4992975;28;20425;-92
2023/03/30 20:21:23;;;;;;;2.53;2.33;;;21.60;71.50;;;;;;4994155;28;20500;-91
2023/03/30 20:23:54;;;;;;;2.20;2.00;;;21.70;71.30;;;;;;5005750;23;20496;-91
2023/03/30 20:26:25;;;;;;;2.40;2.20;;;21.60;71.20;;;;;;5001993;28;20504;-90
2023/03/30 20:28:53;;;;;;;3.50;2.37;;;21.80;71.40;;;;;;5013793;28;20424;-91
2023/03/30 20:34:26;;;;;;;2.00;1.80;;;21.70;70.90;;;;;;5014076;23;20473;-90
2023/03/30 20:36:54;;;;;;;2.10;2.00;;;21.70;71.00;;;;;;4992189;28;20496;-90
2023/03/30 20:39:25;;;;;;;2.20;2.00;;;21.70;71.10;;;;;;4982992;28;20457;-90
2023/03/30 20:41:56;;;;;;;2.17;1.97;;;21.70;71.00;;;;;;4982962;28;20545;-92
2023/03/30 20:44:28;;;;;;;2.27;2.07;;;21.70;70.80;;;;;;4983360;28;20462;-90
2023/03/30 20:47:00;;;;;;;3.20;2.37;;;21.70;70.90;;;;;;4981702;28;20508;-90
2023/03/30 20:49:27;;;;;;;2.90;2.20;;;21.70;71.00;;;;;;4983547;28;20492;-91
2023/03/30 20:51:59;;;;;;;2.10;1.97;;;21.70;70.90;;;;;;4981944;28;20507;-90
2023/03/30 20:54:30;;;;;;;2.37;1.90;;;21.70;70.90;;;;;;4983444;28;20433;-90
2023/03/30 20:56:57;;;;;;;2.30;2.10;;;21.70;70.90;;;;;;4982806;28;20517;-90
2023/03/30 20:59:24;;;;;;;1.73;1.60;;;21.70;70.90;;;;;;4982664;28;20453;-93
2023/03/30 21:01:57;;;;;;;1.83;1.73;;;21.70;70.90;;;;;;5000992;28;20489;-93
2023/03/30 21:04:27;;;;;;;1.90;1.57;;;21.70;71.10;;;;;;5001702;28;20448;-95
2023/03/30 21:06:54;;;;;;;1.87;1.50;;;21.70;71.10;;;;;;5001030;28;20479;-94
2023/03/30 21:09:25;;;;;;;2.37;1.73;;;21.90;71.10;;;;;;5001397;28;20500;-94
2023/03/30 21:11:52;;;;;;;2.33;2.13;;;21.70;70.90;;;;;;5002271;28;20456;-93
2023/03/30 21:14:23;;;;;;;1.97;1.70;;;21.70;70.80;;;;;;5001325;28;20528;-94
2023/03/30 21:16:50;;;;;;;1.83;1.73;;;21.70;70.90;;;;;;5001347;28;20458;-92
2023/03/30 21:19:17;;;;;;;1.67;1.57;;;21.70;70.80;;;;;;4999899;28;20500;-93